Time;durP1;ratioP1;P1;durP2;ratioP2;P2;SDS_P1;SDS_P2;PMS_P1;PMS_P2;Temp;Humidity;BMP_temperature;BMP_pressure;BME280_temperature;BME280_humidity;BME280_pressure;Samples;Min_cycle;Max_cycle;Signal;HPM_P1;HPM_P2
2021/09/28 00:01:17;;;;;;;19.88;13.05;;;19.50;99.90;;;;;;4996460;28;20514;-82
2021/09/28 00:03:43;;;;;;;20.45;13.82;;;19.50;99.90;;;;;;5014753;28;20465;-82
2021/09/28 00:06:09;;;;;;;17.85;14.57;;;19.50;99.90;;;;;;5013936;28;20037;-81
2021/09/28 00:08:36;;;;;;;19.75;12.77;;;19.50;99.90;;;;;;4996589;28;20092;-82
2021/09/28 00:11:02;;;;;;;17.13;12.23;;;19.50;99.90;;;;;;5014276;28;20022;-82
2021/09/28 00:13:27;;;;;;;23.25;13.32;;;19.50;99.90;;;;;;5014621;28;20032;-82
2021/09/28 00:15:53;;;;;;;19.50;13.27;;;19.50;99.90;;;;;;5014374;28;20022;-82
2021/09/28 00:18:19;;;;;;;18.73;11.95;;;19.50;99.90;;;;;;5014325;28;20092;-81
2021/09/28 00:20:44;;;;;;;24.10;13.50;;;19.50;99.90;;;;;;5013674;28;20528;-82
2021/09/28 00:23:13;;;;;;;23.30;13.25;;;19.50;99.90;;;;;;5013645;28;20038;-82
2021/09/28 00:25:40;;;;;;;19.35;12.77;;;19.60;99.90;;;;;;5013734;28;20397;-81
2021/09/28 00:28:06;;;;;;;20.42;12.85;;;19.60;99.90;;;;;;5014054;28;20061;-82
2021/09/28 00:30:31;;;;;;;26.42;12.73;;;19.60;99.90;;;;;;5014106;28;20069;-82
2021/09/28 00:32:57;;;;;;;23.52;12.65;;;19.60;99.90;;;;;;5013772;28;20080;-82
2021/09/28 00:35:23;;;;;;;18.58;12.52;;;19.60;99.90;;;;;;5013812;28;20153;-82
2021/09/28 00:37:48;;;;;;;22.58;14.43;;;19.60;99.90;;;;;;5013556;28;20034;-82
2021/09/28 00:40:14;;;;;;;22.20;13.32;;;19.60;99.90;;;;;;5013693;28;20033;-81
2021/09/28 00:42:40;;;;;;;28.10;15.70;;;19.60;99.90;;;;;;5013620;28;20045;-82
2021/09/28 00:45:08;;;;;;;18.90;14.43;;;19.50;99.90;;;;;;5014078;28;20378;-81
2021/09/28 00:47:34;;;;;;;20.95;14.13;;;19.50;99.90;;;;;;5014096;28;20034;-81
2021/09/28 00:50:00;;;;;;;33.92;14.13;;;19.50;99.90;;;;;;5013634;28;20084;-82
2021/09/28 00:52:26;;;;;;;24.02;14.40;;;19.50;99.90;;;;;;5013653;28;20061;-82
2021/09/28 00:54:52;;;;;;;23.27;15.18;;;19.50;99.90;;;;;;4996185;28;20113;-81
2021/09/28 00:57:18;;;;;;;21.15;15.63;;;19.50;99.90;;;;;;5013270;28;20085;-82
2021/09/28 00:59:45;;;;;;;18.17;14.63;;;19.40;99.90;;;;;;5013579;28;20362;-82
2021/09/28 01:02:12;;;;;;;22.48;14.63;;;19.50;99.90;;;;;;5013387;28;20081;-82
2021/09/28 01:04:38;;;;;;;26.90;15.50;;;19.40;99.90;;;;;;5013110;28;20049;-82
2021/09/28 01:07:05;;;;;;;26.58;15.52;;;19.30;99.90;;;;;;5013271;28;20072;-81
2021/09/28 01:09:32;;;;;;;23.58;15.02;;;19.30;99.90;;;;;;5013239;28;20088;-82
2021/09/28 01:11:58;;;;;;;20.75;15.02;;;19.30;99.90;;;;;;5013620;28;20029;-82
2021/09/28 01:14:24;;;;;;;27.27;15.82;;;19.30;99.90;;;;;;5013529;28;20054;-82
2021/09/28 01:16:50;;;;;;;27.08;15.25;;;19.30;99.90;;;;;;5013411;28;20527;-82
2021/09/28 01:19:16;;;;;;;68.50;16.83;;;19.30;99.90;;;;;;5013339;28;20061;-82
2021/09/28 01:21:42;;;;;;;22.02;16.13;;;19.30;99.90;;;;;;5013228;28;20045;-82
2021/09/28 01:24:08;;;;;;;25.98;16.13;;;19.30;99.90;;;;;;5013133;28;20454;-82
2021/09/28 01:26:34;;;;;;;26.17;16.42;;;19.30;99.90;;;;;;5013542;28;20056;-82
2021/09/28 01:29:02;;;;;;;23.58;16.63;;;19.30;99.90;;;;;;5013315;28;20026;-81
2021/09/28 01:31:28;;;;;;;30.10;15.63;;;19.30;99.90;;;;;;5013184;28;20065;-82
2021/09/28 01:33:54;;;;;;;28.17;16.02;;;19.30;99.90;;;;;;5013076;28;20563;-82
2021/09/28 01:36:20;;;;;;;24.98;16.50;;;19.30;99.90;;;;;;4998092;28;20037;-82
2021/09/28 01:38:46;;;;;;;23.33;16.92;;;19.30;99.90;;;;;;5017232;28;20091;-81
2021/09/28 01:41:13;;;;;;;19.77;15.40;;;19.20;99.90;;;;;;5016428;28;20050;-81
2021/09/28 01:43:38;;;;;;;25.40;15.57;;;19.10;99.90;;;;;;5016169;28;20511;-82
2021/09/28 01:46:05;;;;;;;21.48;15.80;;;19.10;99.90;;;;;;4999175;28;20053;-82
2021/09/28 01:48:42;;;;;;;27.73;15.43;;;19.10;99.90;;;;;;5016860;28;20050;-82
2021/09/28 01:51:08;;;;;;;33.72;17.38;;;19.10;99.90;;;;;;5016674;28;20034;-82
2021/09/28 01:53:33;;;;;;;30.50;18.73;;;19.10;99.90;;;;;;5016901;28;20084;-83
2021/09/28 01:55:59;;;;;;;27.17;18.33;;;19.10;99.90;;;;;;5016875;28;20034;-82
2021/09/28 01:58:25;;;;;;;26.35;19.23;;;19.10;99.90;;;;;;5016914;28;20033;-81
2021/09/28 02:00:51;;;;;;;28.70;19.83;;;19.10;99.90;;;;;;5016570;28;20046;-82
2021/09/28 02:03:16;;;;;;;29.90;20.27;;;19.10;99.90;;;;;;5016443;28;20030;-82
2021/09/28 02:05:43;;;;;;;30.05;19.55;;;19.10;99.90;;;;;;5017007;28;20411;-82
2021/09/28 02:08:09;;;;;;;28.23;19.42;;;19.10;99.90;;;;;;5016651;28;20025;-83
2021/09/28 02:10:35;;;;;;;26.98;19.65;;;19.10;99.90;;;;;;5016603;28;20427;-82
2021/09/28 02:13:00;;;;;;;30.30;18.77;;;19.00;99.90;;;;;;5016360;28;20038;-81
2021/09/28 02:15:26;;;;;;;25.67;18.48;;;18.90;99.90;;;;;;5016161;28;20068;-82
2021/09/28 02:17:52;;;;;;;27.83;17.92;;;18.90;99.90;;;;;;5016228;28;20034;-82
2021/09/28 02:20:18;;;;;;;26.27;18.73;;;18.80;99.90;;;;;;5016266;28;20026;-82
2021/09/28 02:22:44;;;;;;;29.63;19.48;;;18.80;99.90;;;;;;5016105;28;20127;-82
2021/09/28 02:25:13;;;;;;;27.45;18.60;;;18.80;99.90;;;;;;5016500;28;20045;-82
2021/09/28 02:27:39;;;;;;;26.30;17.52;;;18.80;99.90;;;;;;5016044;28;20064;-82
2021/09/28 02:30:06;;;;;;;28.85;17.98;;;18.80;99.90;;;;;;5015981;28;20069;-82
2021/09/28 02:32:32;;;;;;;27.02;19.15;;;18.80;99.90;;;;;;4998430;28;20041;-82
2021/09/28 02:34:59;;;;;;;36.10;20.05;;;18.80;99.90;;;;;;5016363;28;20034;-82
2021/09/28 02:37:25;;;;;;;23.38;18.20;;;18.70;99.90;;;;;;5016391;28;20116;-82
2021/09/28 02:39:50;;;;;;;30.75;18.95;;;18.60;99.90;;;;;;5015728;28;20081;-82
2021/09/28 02:42:16;;;;;;;24.23;18.15;;;18.60;99.90;;;;;;5015980;28;20042;-82
2021/09/28 02:44:42;;;;;;;28.25;17.42;;;18.60;99.90;;;;;;5016606;28;20069;-76
2021/09/28 02:47:08;;;;;;;22.75;15.40;;;18.60;99.90;;;;;;5014617;28;20050;-77
2021/09/28 02:49:34;;;;;;;17.45;13.68;;;18.60;99.90;;;;;;5015616;28;20401;-77
2021/09/28 02:51:59;;;;;;;18.10;12.95;;;18.70;99.90;;;;;;5015652;28;20120;-77
2021/09/28 02:54:25;;;;;;;20.30;15.20;;;18.70;99.90;;;;;;5015683;28;20137;-79
2021/09/28 02:56:51;;;;;;;23.23;14.65;;;18.70;99.90;;;;;;5015500;28;20537;-85
2021/09/28 02:59:17;;;;;;;17.73;13.02;;;18.70;99.90;;;;;;5015748;28;20073;-79
2021/09/28 03:01:43;;;;;;;29.05;13.88;;;18.60;99.90;;;;;;5015473;28;20053;-77
2021/09/28 03:04:08;;;;;;;24.05;13.43;;;18.50;99.90;;;;;;5015569;28;20372;-80
2021/09/28 03:06:34;;;;;;;23.48;14.10;;;18.50;99.90;;;;;;5015590;28;20440;-76
2021/09/28 03:09:00;;;;;;;29.73;13.63;;;18.40;99.90;;;;;;5015367;28;20026;-78
2021/09/28 03:11:27;;;;;;;16.85;12.35;;;18.30;99.90;;;;;;5015538;28;20034;-77
2021/09/28 03:13:55;;;;;;;17.38;12.18;;;18.30;99.90;;;;;;5015412;28;20057;-78
2021/09/28 03:16:22;;;;;;;20.70;11.50;;;18.30;99.90;;;;;;5015435;28;20084;-82
2021/09/28 03:18:48;;;;;;;22.52;12.35;;;18.30;99.90;;;;;;5015068;28;20472;-84
2021/09/28 03:21:14;;;;;;;19.83;12.68;;;18.30;99.90;;;;;;5015066;28;20048;-84
2021/09/28 03:23:39;;;;;;;15.82;13.20;;;18.30;99.90;;;;;;5015168;28;20400;-84
2021/09/28 03:26:05;;;;;;;20.92;13.15;;;18.30;99.90;;;;;;5015092;28;20026;-79
2021/09/28 03:28:32;;;;;;;24.73;13.82;;;18.30;99.90;;;;;;5015060;28;20034;-82
2021/09/28 03:30:59;;;;;;;23.73;12.23;;;18.20;99.90;;;;;;5014938;28;20045;-81
2021/09/28 03:33:26;;;;;;;22.58;14.05;;;18.20;99.90;;;;;;5014971;28;20061;-85
2021/09/28 03:35:52;;;;;;;26.38;14.02;;;18.20;99.90;;;;;;5014852;28;20037;-78
2021/09/28 03:38:17;;;;;;;23.00;13.65;;;18.20;99.90;;;;;;5014905;28;20026;-78
2021/09/28 03:40:44;;;;;;;23.75;13.38;;;18.20;99.90;;;;;;5014763;28;20038;-83
2021/09/28 03:43:10;;;;;;;34.38;14.65;;;18.20;99.90;;;;;;5014597;28;20156;-79
2021/09/28 03:45:36;;;;;;;32.65;14.63;;;18.20;99.90;;;;;;5014488;28;20045;-79
2021/09/28 03:48:03;;;;;;;15.35;12.18;;;18.20;99.90;;;;;;5014783;28;20038;-79
2021/09/28 03:50:29;;;;;;;21.40;13.30;;;18.20;99.90;;;;;;5014704;28;20034;-80
2021/09/28 03:52:55;;;;;;;18.05;13.38;;;18.20;99.90;;;;;;5014375;28;20030;-84
2021/09/28 03:55:21;;;;;;;20.73;12.20;;;18.20;99.90;;;;;;5014244;28;20036;-84
2021/09/28 03:57:51;;;;;;;23.60;13.20;;;18.20;99.90;;;;;;5014403;28;20514;-80
2021/09/28 04:00:19;;;;;;;19.75;12.18;;;18.20;99.90;;;;;;5014594;28;20037;-79
2021/09/28 04:02:45;;;;;;;17.95;13.70;;;18.20;99.90;;;;;;5014296;28;20042;-85
2021/09/28 04:05:11;;;;;;;20.98;12.57;;;18.20;99.90;;;;;;5014158;28;20034;-84
2021/09/28 04:07:38;;;;;;;25.20;13.77;;;18.20;99.90;;;;;;4996880;28;20049;-80
2021/09/28 04:10:08;;;;;;;20.10;13.30;;;18.20;99.90;;;;;;5014141;28;20030;-79
2021/09/28 04:12:35;;;;;;;20.75;12.68;;;18.20;99.90;;;;;;5014131;28;20108;-84
2021/09/28 04:15:01;;;;;;;24.30;12.93;;;18.20;99.90;;;;;;5014182;28;20041;-82
2021/09/28 04:17:27;;;;;;;19.13;12.35;;;18.20;99.90;;;;;;5013839;28;20029;-79
2021/09/28 04:19:53;;;;;;;19.70;13.02;;;18.20;99.90;;;;;;5014149;28;20502;-83
2021/09/28 04:22:20;;;;;;;15.98;11.82;;;18.20;99.90;;;;;;5014166;28;20391;-83
2021/09/28 04:24:46;;;;;;;18.27;11.13;;;18.10;99.90;;;;;;5014112;28;20037;-77
2021/09/28 04:27:12;;;;;;;15.27;11.20;;;18.10;99.90;;;;;;5013968;28;20034;-79
2021/09/28 04:29:38;;;;;;;15.85;11.73;;;18.10;99.90;;;;;;5013731;28;20036;-80
2021/09/28 04:32:05;;;;;;;21.98;11.32;;;18.10;99.90;;;;;;5013900;28;20113;-83
2021/09/28 04:34:31;;;;;;;18.00;12.93;;;18.10;99.90;;;;;;5014031;28;20388;-83
2021/09/28 04:36:57;;;;;;;15.70;10.85;;;18.10;99.90;;;;;;5013706;28;20038;-84
2021/09/28 04:39:29;;;;;;;18.67;11.48;;;18.10;99.90;;;;;;5013922;28;20389;-78
2021/09/28 04:41:55;;;;;;;17.65;12.55;;;18.10;99.90;;;;;;5013665;28;20108;-77
2021/09/28 04:44:20;;;;;;;15.05;11.18;;;18.10;99.90;;;;;;5013536;28;20033;-82
2021/09/28 04:46:46;;;;;;;16.42;12.00;;;18.10;99.90;;;;;;5013550;28;20100;-79
2021/09/28 04:49:12;;;;;;;13.63;11.30;;;18.10;99.90;;;;;;5013605;28;20030;-78
2021/09/28 04:51:38;;;;;;;18.63;12.50;;;18.10;99.90;;;;;;5013615;28;20040;-82
2021/09/28 04:54:04;;;;;;;17.95;11.95;;;18.10;99.90;;;;;;5013811;28;20030;-84
2021/09/28 04:56:30;;;;;;;16.70;10.80;;;18.10;99.90;;;;;;5013442;28;20464;-80
2021/09/28 04:58:56;;;;;;;23.10;11.60;;;18.10;99.90;;;;;;5013292;28;20071;-83
2021/09/28 05:01:22;;;;;;;24.10;12.75;;;18.10;99.90;;;;;;5013456;28;20042;-79
2021/09/28 05:03:48;;;;;;;19.25;12.18;;;18.20;99.90;;;;;;5013424;28;20018;-79
2021/09/28 05:06:17;;;;;;;20.58;12.07;;;18.10;99.90;;;;;;5013322;28;20032;-78
2021/09/28 05:08:42;;;;;;;22.45;11.88;;;18.00;99.90;;;;;;5013062;28;20030;-79
2021/09/28 05:11:12;;;;;;;21.08;11.52;;;18.10;99.90;;;;;;5013018;28;20073;-85
2021/09/28 05:13:39;;;;;;;21.27;12.45;;;18.10;99.90;;;;;;5013422;28;20376;-81
2021/09/28 05:16:05;;;;;;;18.08;11.40;;;18.10;99.90;;;;;;5013336;28;20030;-78
2021/09/28 05:18:31;;;;;;;17.05;10.30;;;18.20;99.90;;;;;;5013167;28;20484;-84
2021/09/28 05:20:58;;;;;;;24.50;11.27;;;18.20;99.90;;;;;;5013229;28;20042;-79
2021/09/28 05:23:23;;;;;;;19.05;12.10;;;18.30;99.90;;;;;;5013445;28;20540;-79
2021/09/28 05:25:49;;;;;;;34.58;12.52;;;18.40;99.90;;;;;;5013178;28;20112;-79
2021/09/28 05:28:15;;;;;;;17.65;10.50;;;18.60;99.90;;;;;;5013143;28;20145;-86
2021/09/28 05:30:44;;;;;;;13.45;9.77;;;19.00;99.90;;;;;;5013324;28;20034;-81
2021/09/28 05:33:12;;;;;;;13.88;9.30;;;19.50;99.90;;;;;;5013359;28;20026;-82
2021/09/28 05:35:38;;;;;;;13.15;9.25;;;20.00;99.90;;;;;;5013012;28;20484;-87
2021/09/28 05:38:04;;;;;;;16.80;8.65;;;20.40;99.90;;;;;;5012928;28;20037;-80
2021/09/28 05:40:30;;;;;;;14.77;8.07;;;20.90;99.90;;;;;;5012326;28;20037;-82
2021/09/28 05:42:56;;;;;;;15.32;8.00;;;21.40;99.90;;;;;;5012247;28;20037;-85
2021/09/28 05:45:22;;;;;;;18.55;8.73;;;21.80;99.90;;;;;;5012007;28;20034;-85
2021/09/28 05:47:48;;;;;;;13.90;7.78;;;22.20;99.90;;;;;;5012264;28;20054;-82
2021/09/28 05:50:14;;;;;;;24.52;7.35;;;22.60;99.90;;;;;;5011760;28;20045;-85
2021/09/28 05:52:43;;;;;;;15.45;7.45;;;23.10;99.90;;;;;;5012212;28;20046;-90
2021/09/28 05:55:09;;;;;;;14.48;7.93;;;23.50;99.90;;;;;;5012031;28;20036;-83
2021/09/28 05:57:35;;;;;;;16.23;7.40;;;23.80;99.90;;;;;;5012093;28;20057;-81
2021/09/28 06:00:01;;;;;;;15.35;6.85;;;24.20;99.90;;;;;;5012063;28;20033;-79
2021/09/28 06:02:26;;;;;;;18.95;7.00;;;24.60;99.90;;;;;;5012015;28;20057;-88
2021/09/28 06:04:53;;;;;;;14.63;6.68;;;25.00;99.90;;;;;;5012270;28;20051;-88
2021/09/28 06:07:20;;;;;;;16.88;7.75;;;25.40;99.90;;;;;;5012123;28;20038;-79
2021/09/28 06:09:46;;;;;;;17.00;7.00;;;25.70;99.90;;;;;;5011991;28;20037;-88
2021/09/28 06:12:12;;;;;;;12.43;5.78;;;26.10;99.90;;;;;;5011926;28;20465;-84
2021/09/28 06:14:39;;;;;;;10.20;4.57;;;26.50;99.90;;;;;;5012030;28;20034;-87
2021/09/28 06:17:05;;;;;;;5.75;4.35;;;26.90;99.90;;;;;;5011845;28;20026;-78
2021/09/28 06:19:34;;;;;;;8.18;4.20;;;27.20;99.90;;;;;;5011876;28;20041;-78
2021/09/28 06:22:04;;;;;;;9.32;4.57;;;27.10;99.90;;;;;;5013480;28;20056;-81
2021/09/28 06:24:32;;;;;;;12.17;5.07;;;27.30;99.90;;;;;;5016066;28;20034;-78
2021/09/28 06:26:59;;;;;;;10.65;4.18;;;27.60;99.90;;;;;;5016170;28;20034;-82
2021/09/28 06:29:28;;;;;;;8.85;4.25;;;28.30;99.90;;;;;;5015254;28;20049;-79
2021/09/28 06:31:54;;;;;;;12.20;4.40;;;28.90;99.90;;;;;;5015450;28;20038;-81
2021/09/28 06:34:20;;;;;;;8.93;3.70;;;29.10;99.90;;;;;;5015580;28;20056;-78
2021/09/28 06:36:46;;;;;;;8.63;4.20;;;29.70;99.90;;;;;;5015432;28;20058;-92
2021/09/28 06:39:11;;;;;;;16.02;4.40;;;30.00;99.90;;;;;;5015260;28;20515;-89
2021/09/28 06:41:37;;;;;;;10.07;4.47;;;30.30;99.90;;;;;;5015251;28;20077;-79
2021/09/28 06:44:05;;;;;;;5.07;3.40;;;30.60;99.90;;;;;;5015281;28;20025;-79
2021/09/28 06:46:31;;;;;;;11.93;3.80;;;30.90;99.90;;;;;;5014988;28;20046;-78
2021/09/28 06:48:57;;;;;;;9.98;3.67;;;31.30;99.90;;;;;;5015141;28;20045;-78
2021/09/28 06:51:23;;;;;;;5.80;2.92;;;31.60;99.90;;;;;;5015215;28;20042;-79
2021/09/28 06:53:49;;;;;;;9.63;3.45;;;31.80;99.90;;;;;;5015247;28;20034;-91
2021/09/28 06:56:18;;;;;;;8.65;3.40;;;32.10;99.90;;;;;;5013980;28;20030;-80
2021/09/28 06:58:45;;;;;;;6.38;3.33;;;32.10;99.90;;;;;;5015144;28;20034;-80
2021/09/28 07:01:12;;;;;;;9.80;3.55;;;32.10;99.90;;;;;;5015156;28;20053;-91
2021/09/28 07:03:38;;;;;;;8.95;3.50;;;32.10;99.90;;;;;;5014876;28;20077;-86
2021/09/28 07:06:19;;;;;;;;;;;;;;;;;;;;;
2021/09/28 07:08:54;;;;;;;8.45;3.20;;;33.00;99.90;;;;;;5018292;28;20033;-82
2021/09/28 07:11:20;;;;;;;7.13;3.17;;;33.60;99.90;;;;;;5015798;28;20499;-91
2021/09/28 07:13:46;;;;;;;7.93;2.97;;;34.30;99.90;;;;;;5015160;28;20030;-80
2021/09/28 07:16:13;;;;;;;6.93;3.00;;;34.50;99.90;;;;;;5014594;28;20401;-80
2021/09/28 07:18:39;;;;;;;6.50;2.90;;;35.00;99.90;;;;;;5014974;28;20033;-82
2021/09/28 07:21:05;;;;;;;8.27;3.22;;;35.50;98.50;;;;;;5014487;28;20400;-82
2021/09/28 07:23:31;;;;;;;6.00;2.90;;;35.70;98.50;;;;;;5014247;28;20034;-79
2021/09/28 07:26:07;;;;;;;7.97;2.65;;;35.90;98.20;;;;;;5014407;28;20137;-83
2021/09/28 07:28:34;;;;;;;6.45;2.65;;;36.20;97.10;;;;;;5015389;28;20025;-76
2021/09/28 07:30:59;;;;;;;6.25;2.80;;;36.60;96.20;;;;;;5015039;28;20034;-84
2021/09/28 07:33:25;;;;;;;19.15;3.05;;;36.80;95.60;;;;;;5014456;28;20548;-77
2021/09/28 07:35:51;;;;;;;9.65;3.75;;;36.90;94.90;;;;;;5015157;28;20030;-78
2021/09/28 07:38:17;;;;;;;17.75;4.65;;;37.40;94.90;;;;;;5014873;28;20088;-83
2021/09/28 07:40:47;;;;;;;11.45;4.00;;;38.10;94.50;;;;;;5014795;28;20189;-79
2021/09/28 07:43:13;;;;;;;10.20;4.60;;;38.70;92.80;;;;;;5014641;28;20033;-84
2021/09/28 07:45:38;;;;;;;14.57;4.03;;;39.20;92.10;;;;;;5014561;28;20042;-77
2021/09/28 07:48:05;;;;;;;12.68;3.95;;;39.60;91.50;;;;;;5014774;28;20105;-83
2021/09/28 07:50:31;;;;;;;14.70;3.90;;;40.00;90.70;;;;;;5014886;28;20044;-78
2021/09/28 07:52:57;;;;;;;10.90;4.40;;;40.20;90.10;;;;;;5014568;28;20555;-78
2021/09/28 07:55:23;;;;;;;18.60;4.75;;;40.50;89.10;;;;;;5014450;28;20032;-83
2021/09/28 07:57:49;;;;;;;26.52;4.57;;;40.60;87.10;;;;;;5014385;28;20065;-84
2021/09/28 08:00:16;;;;;;;22.10;5.38;;;40.80;86.60;;;;;;5014640;28;20028;-80
2021/09/28 08:02:43;;;;;;;22.45;5.90;;;41.10;85.10;;;;;;5014395;28;20093;-81
2021/09/28 08:05:10;;;;;;;36.58;5.57;;;41.30;84.80;;;;;;4996696;28;20041;-78
2021/09/28 08:07:36;;;;;;;18.80;5.07;;;41.50;83.80;;;;;;5014294;28;20034;-88
2021/09/28 08:10:02;;;;;;;20.75;5.20;;;41.80;82.70;;;;;;5014248;28;20037;-81
2021/09/28 08:12:28;;;;;;;34.03;5.53;;;42.00;82.10;;;;;;5014189;28;20044;-80
2021/09/28 08:14:54;;;;;;;23.27;5.88;;;42.20;81.50;;;;;;5014029;28;20034;-79
2021/09/28 08:17:21;;;;;;;34.33;6.30;;;42.20;81.00;;;;;;5014254;28;20435;-89
2021/09/28 08:19:56;;;;;;;17.60;5.72;;;42.10;80.40;;;;;;5015938;28;20034;-91
2021/09/28 08:22:22;;;;;;;16.15;5.05;;;42.20;79.50;;;;;;5015063;28;20511;-84
2021/09/28 08:24:52;;;;;;;11.25;4.75;;;42.20;79.30;;;;;;5014147;28;20034;-89
2021/09/28 08:30:06;;;;;;;21.77;5.07;;;41.60;79.70;;;;;;5014173;28;20069;-89
2021/09/28 08:32:32;;;;;;;13.52;4.50;;;40.40;82.00;;;;;;5013841;28;20077;-81
2021/09/28 08:34:58;;;;;;;12.27;4.80;;;39.40;83.60;;;;;;5013839;28;20029;-85
2021/09/28 08:37:26;;;;;;;11.30;4.47;;;38.30;85.50;;;;;;5014187;28;20083;-80
2021/09/28 08:39:56;;;;;;;17.75;4.43;;;37.20;87.60;;;;;;5013831;28;20435;-82
2021/09/28 08:42:22;;;;;;;18.10;4.60;;;36.20;90.00;;;;;;5013655;28;20057;-82
2021/09/28 08:44:48;;;;;;;10.70;3.92;;;35.40;90.80;;;;;;5012922;28;20404;-90
2021/09/28 08:47:14;;;;;;;8.73;4.22;;;34.70;91.20;;;;;;5013793;28;20056;-92
2021/09/28 08:49:40;;;;;;;11.75;4.63;;;34.10;92.00;;;;;;5013537;28;20045;-88
2021/09/28 08:52:06;;;;;;;25.10;5.88;;;33.80;92.50;;;;;;5013407;28;20120;-83
2021/09/28 08:54:33;;;;;;;12.63;4.78;;;33.60;92.50;;;;;;5013776;28;20030;-82
2021/09/28 08:56:59;;;;;;;17.77;4.95;;;33.40;93.30;;;;;;5013525;28;20412;-82
2021/09/28 08:59:49;;;;;;;11.57;4.90;;;33.00;93.80;;;;;;5012026;28;20037;-88
2021/09/28 09:02:15;;;;;;;16.20;6.45;;;32.40;94.40;;;;;;5013426;28;20050;-90
2021/09/28 09:04:42;;;;;;;15.15;6.53;;;32.00;95.50;;;;;;5013827;28;20073;-82
2021/09/28 09:07:25;;;;;;;16.55;5.72;;;31.80;96.00;;;;;;5013445;28;20493;-82
2021/09/28 09:09:51;;;;;;;19.17;6.05;;;31.40;96.70;;;;;;5013360;28;20040;-80
2021/09/28 09:12:31;;;;;;;12.35;5.70;;;31.20;97.50;;;;;;5013089;28;20158;-81
2021/09/28 09:15:23;;;;;;;16.25;6.82;;;30.90;98.20;;;;;;5012957;28;20038;-81
2021/09/28 09:17:51;;;;;;;17.20;6.60;;;30.80;98.80;;;;;;5013245;28;20041;-81
2021/09/28 09:20:37;;;;;;;14.52;7.38;;;30.60;99.30;;;;;;5013207;28;20116;-83
2021/09/28 09:23:27;;;;;;;9.27;6.18;;;30.60;99.80;;;;;;5013119;28;20087;-82
2021/09/28 09:26:17;;;;;;;12.40;6.50;;;30.50;99.90;;;;;;5013253;28;20068;-83
2021/09/28 09:28:50;;;;;;;14.38;6.63;;;30.50;99.90;;;;;;5012804;28;20515;-85
2021/09/28 09:31:15;;;;;;;12.68;7.50;;;30.60;99.90;;;;;;5013344;28;20073;-89
2021/09/28 09:33:43;;;;;;;12.98;7.45;;;30.50;99.90;;;;;;5013413;28;20030;-83
2021/09/28 09:43:09;;;;;;;10.30;6.80;;;30.30;99.90;;;;;;4994351;28;20041;-84
2021/09/28 09:45:35;;;;;;;16.23;6.65;;;30.20;99.90;;;;;;5012842;28;20527;-89
2021/09/28 09:48:20;;;;;;;13.00;7.20;;;30.10;99.90;;;;;;5012975;28;20038;-91
2021/09/28 09:50:59;;;;;;;16.80;8.10;;;30.10;99.90;;;;;;5012784;28;20511;-89
2021/09/28 09:53:25;;;;;;;17.50;7.53;;;29.90;99.90;;;;;;5012887;28;20481;-91
2021/09/28 09:55:51;;;;;;;13.57;7.25;;;29.80;99.90;;;;;;5012732;28;20034;-83
2021/09/28 09:58:20;;;;;;;18.00;7.57;;;29.80;99.90;;;;;;5016073;28;20038;-84
2021/09/28 10:00:48;;;;;;;14.23;7.57;;;29.90;99.90;;;;;;5015489;28;20398;-83
2021/09/28 10:03:16;;;;;;;13.98;6.80;;;29.80;99.90;;;;;;5015101;28;20038;-86
2021/09/28 10:05:44;;;;;;;24.17;6.93;;;29.60;99.90;;;;;;5015268;28;20109;-85
2021/09/28 10:08:17;;;;;;;24.13;6.93;;;29.50;99.90;;;;;;5015046;28;20029;-83
2021/09/28 10:10:43;;;;;;;21.05;8.10;;;29.50;99.90;;;;;;5015973;28;20477;-82
2021/09/28 10:13:47;;;;;;;10.63;7.55;;;29.50;99.90;;;;;;5015661;28;20080;-85
2021/09/28 10:16:28;;;;;;;19.35;7.22;;;29.20;99.90;;;;;;5015499;28;20062;-82
2021/09/28 10:18:54;;;;;;;11.95;7.55;;;29.00;99.90;;;;;;5015439;28;20488;-84
2021/09/28 10:21:42;;;;;;;19.23;6.80;;;29.00;99.90;;;;;;5016355;28;20495;-84
2021/09/28 10:24:20;;;;;;;17.33;6.95;;;29.00;99.90;;;;;;5015851;28;20438;-83
2021/09/28 10:26:59;;;;;;;18.52;7.55;;;28.70;99.90;;;;;;5016249;28;20034;-82
2021/09/28 10:29:37;;;;;;;24.70;7.57;;;28.60;99.90;;;;;;5015895;28;20480;-84
2021/09/28 10:32:34;;;;;;;23.05;7.50;;;28.40;99.90;;;;;;5015503;28;20066;-85
2021/09/28 10:35:05;;;;;;;20.15;7.85;;;28.30;99.90;;;;;;5016348;28;20026;-83
2021/09/28 10:37:56;;;;;;;13.85;6.47;;;28.30;99.90;;;;;;5016000;28;20038;-81
2021/09/28 10:40:21;;;;;;;12.30;6.20;;;28.40;99.90;;;;;;5015609;28;20052;-81
2021/09/28 10:42:52;;;;;;;28.52;7.63;;;28.50;99.90;;;;;;5015197;28;20034;-81
2021/09/28 10:45:19;;;;;;;11.73;5.95;;;28.50;99.90;;;;;;5014810;28;20037;-82
2021/09/28 10:47:52;;;;;;;13.50;5.72;;;28.40;99.90;;;;;;5015020;28;20030;-84
2021/09/28 10:50:33;;;;;;;14.35;5.55;;;28.50;99.90;;;;;;5015226;28;20404;-85
2021/09/28 10:53:53;;;;;;;33.95;5.88;;;28.60;99.90;;;;;;5014952;28;20038;-84
2021/09/28 11:02:59;;;;;;;10.10;5.35;;;28.60;99.90;;;;;;5015287;28;20044;-83
2021/09/28 11:05:31;;;;;;;8.53;5.90;;;28.30;99.90;;;;;;5014827;28;20065;-86
2021/09/28 11:07:58;;;;;;;9.60;5.70;;;28.20;99.90;;;;;;5014539;28;20323;-87
2021/09/28 11:10:27;;;;;;;15.10;5.20;;;28.20;99.90;;;;;;5015036;28;20436;-83
2021/09/28 11:12:53;;;;;;;8.55;5.53;;;28.30;99.90;;;;;;5014390;28;20479;-85
2021/09/28 11:15:23;;;;;;;28.58;7.45;;;28.40;99.90;;;;;;5014949;28;20092;-83
2021/09/28 11:17:49;;;;;;;25.20;6.30;;;28.40;99.90;;;;;;5014548;28;20056;-83
2021/09/28 11:20:27;;;;;;;9.45;5.22;;;28.50;99.90;;;;;;4996761;28;20030;-84
2021/09/28 11:22:55;;;;;;;11.05;5.22;;;28.40;99.90;;;;;;5014074;28;20456;-85
2021/09/28 11:25:21;;;;;;;12.02;5.70;;;28.50;99.90;;;;;;5013981;28;20484;-82
2021/09/28 11:28:11;;;;;;;10.98;4.57;;;28.50;99.90;;;;;;5012611;28;20417;-85
2021/09/28 11:30:40;;;;;;;11.35;4.53;;;28.50;99.90;;;;;;5013931;28;20411;-83
2021/09/28 11:33:10;;;;;;;9.75;4.80;;;28.50;99.90;;;;;;5013924;28;20033;-83
2021/09/28 11:35:37;;;;;;;12.52;5.10;;;28.20;99.90;;;;;;5013718;28;20463;-84
2021/09/28 11:38:06;;;;;;;9.70;5.15;;;28.20;99.90;;;;;;5013435;28;20508;-83
2021/09/28 11:40:39;;;;;;;8.80;5.30;;;28.10;99.90;;;;;;5013667;28;20038;-83
2021/09/28 11:43:28;;;;;;;21.83;4.95;;;28.20;99.90;;;;;;5013799;28;20113;-87
2021/09/28 11:46:01;;;;;;;11.27;5.72;;;28.10;99.90;;;;;;4996870;28;20060;-82
2021/09/28 11:48:35;;;;;;;8.52;5.15;;;28.10;99.90;;;;;;5014107;28;20084;-84
2021/09/28 11:51:08;;;;;;;13.30;5.75;;;28.10;99.90;;;;;;5013519;28;20378;-83
2021/09/28 11:53:41;;;;;;;12.10;5.82;;;28.20;99.90;;;;;;5013521;28;20034;-84
2021/09/28 11:56:08;;;;;;;15.63;5.95;;;28.20;99.90;;;;;;5013835;28;20397;-84
2021/09/28 11:58:35;;;;;;;15.35;6.38;;;28.20;99.90;;;;;;5014163;28;20462;-86
2021/09/28 12:01:05;;;;;;;14.85;7.03;;;28.20;99.90;;;;;;5014340;28;20061;-82
2021/09/28 12:03:33;;;;;;;36.97;7.05;;;28.10;99.90;;;;;;5014366;28;20396;-83
2021/09/28 12:08:49;;;;;;;18.77;6.88;;;28.00;99.90;;;;;;5014319;28;20370;-85
2021/09/28 12:11:18;;;;;;;11.45;6.70;;;28.00;99.90;;;;;;5014141;28;20073;-86
2021/09/28 12:13:47;;;;;;;17.60;6.18;;;27.90;99.90;;;;;;5013982;28;20026;-84
2021/09/28 12:16:18;;;;;;;21.23;7.15;;;28.00;99.90;;;;;;5014056;28;20065;-84
2021/09/28 12:18:44;;;;;;;8.90;6.82;;;28.00;99.90;;;;;;5014361;28;20030;-83
2021/09/28 12:21:26;;;;;;;11.63;7.00;;;27.90;99.90;;;;;;5013175;28;20038;-83
2021/09/28 12:24:17;;;;;;;19.67;8.55;;;27.90;99.90;;;;;;5013478;28;20037;-84
2021/09/28 12:26:45;;;;;;;12.55;7.38;;;27.90;99.90;;;;;;5013090;28;20034;-84
2021/09/28 12:29:17;;;;;;;14.23;7.85;;;27.90;99.90;;;;;;4995522;28;20034;-87
2021/09/28 12:31:44;;;;;;;14.43;8.00;;;27.80;99.90;;;;;;5013351;28;20052;-88
2021/09/28 12:34:10;;;;;;;15.50;8.20;;;27.70;99.90;;;;;;5013105;28;20449;-81
2021/09/28 12:36:37;;;;;;;25.52;7.97;;;27.70;99.90;;;;;;5013210;28;20033;-83
2021/09/28 12:39:20;;;;;;;18.83;7.72;;;27.70;99.90;;;;;;5013126;28;20391;-83
2021/09/28 12:49:25;;;;;;;13.25;7.38;;;27.70;99.90;;;;;;4933524;29;20087;-84
2021/09/28 12:51:51;;;;;;;18.67;8.35;;;27.70;99.90;;;;;;4934995;28;20062;-84
2021/09/28 12:54:19;;;;;;;21.48;8.93;;;27.70;99.90;;;;;;4994184;28;20042;-82
2021/09/28 12:56:45;;;;;;;21.70;8.18;;;27.60;99.90;;;;;;4992985;28;20568;-82
2021/09/28 12:59:10;;;;;;;17.58;8.05;;;27.60;99.90;;;;;;4992692;28;20038;-83
2021/09/28 13:01:45;;;;;;;15.40;8.50;;;27.60;99.90;;;;;;4993425;28;20034;-87
2021/09/28 13:04:16;;;;;;;25.60;7.53;;;27.60;99.90;;;;;;4993097;28;20188;-84
2021/09/28 13:06:44;;;;;;;11.73;7.18;;;27.50;99.90;;;;;;4993134;28;20117;-87
2021/09/28 13:09:11;;;;;;;12.38;7.70;;;27.50;99.90;;;;;;4992784;28;20038;-85